This is the latest recevied weather packets stored in our database for station/object N5YHM-13. If no packets are shown the sender has not sent any weather packets the latest 10 day(s).
| Time | Temp. | Humidity | Pressure | Rain* | Wind** | Luminosity | Snow |
|---|---|---|---|---|---|---|---|
| 1787686148 | 32.22° C | 75% | 1017 hPa | 0 mm | - | 18 W/m² | - |
| 1787685843 | 32.78° C | 76% | 1016.9 hPa | 0 mm | - | 26 W/m² | - |
| 1787685538 | 32.78° C | 75% | 1017 hPa | 0 mm | - | 53 W/m² | - |
| 1787685238 | 32.22° C | 79% | 1017.3 hPa | 0 mm | - | 25 W/m² | - |
| 1787684933 | 31.67° C | 80% | 1017.4 hPa | 0 mm | - | 22 W/m² | - |
| 1787684628 | 32.22° C | 78% | 1017.3 hPa | 0 mm | - | 10 W/m² | - |
| 1787684327 | 31.67° C | 81% | 1017.4 hPa | 0 mm | - | 33 W/m² | - |
| 1787684023 | 31.67° C | 81% | 1017.6 hPa | 0 mm | - | 27 W/m² | - |
| 1787683722 | 32.22° C | 78% | 1017.5 hPa | 0 mm | - | 16 W/m² | - |
| 1787683417 | 32.78° C | 78% | 1017.5 hPa | 0 mm | - | 16 W/m² | - |
| 1787683113 | 32.22° C | 79% | 1017.5 hPa | 0 mm | - | 248 W/m² | - |
| 1787682810 | 32.22° C | 81% | 1017.7 hPa | 0 mm | - | 33 W/m² | - |
| 1787682506 | 32.78° C | 78% | 1017.6 hPa | 0 mm | - | 17 W/m² | - |
| 1787682201 | 32.78° C | 78% | 1017.5 hPa | 0 mm | - | 40 W/m² | - |
| 1787681897 | 32.22° C | 78% | 1017.9 hPa | 0 mm | - | 25 W/m² | - |
| 1787681596 | 32.22° C | 80% | 1017.9 hPa | 0 mm | - | 130 W/m² | - |
| 1787681291 | 31.67° C | 81% | 1017.7 hPa | 0 mm | - | 205 W/m² | - |
| 1787680987 | 31.67° C | 81% | 1017.9 hPa | 0 mm | - | 142 W/m² | - |
| 1787680686 | 31.67° C | 82% | 1018.2 hPa | 0 mm | - | 26 W/m² | - |
| 1787680386 | 31.11° C | 81% | 1018.4 hPa | 0 mm | - | 30 W/m² | - |
| 1787680084 | 30.56° C | 85% | 1018.5 hPa | 0 mm | - | 39 W/m² | - |
| 1787679779 | 30.56° C | 83% | 1018.7 hPa | 0 mm | - | 21 W/m² | - |
| 1787679474 | 31.11° C | 85% | 1018.6 hPa | 0 mm | - | 12 W/m² | - |
| 1787679169 | 31.67° C | 83% | 1018.5 hPa | 0 mm | - | 28 W/m² | - |
| 1787678864 | 31.11° C | 84% | 1018.5 hPa | 0 mm | - | 219 W/m² | - |
* Rain latest hour (hover to see other rain measurements)
** Current wind speed in m/s (hover to see current wind gust speed)